createdAt,value
2022-12-16T00:45:30.472Z,100923.44
2022-12-16T00:47:58.684Z,100936.22
2022-12-16T00:50:26.231Z,100925.06
2022-12-16T00:52:53.841Z,100917.84
2022-12-16T00:55:22.690Z,100912.28
2022-12-16T00:57:50.292Z,100902.75
2022-12-16T01:47:17.432Z,100906.25
2022-12-16T01:49:45.482Z,100907.38
2022-12-16T01:52:15.003Z,100905.06
2022-12-16T01:54:43.414Z,100911.81
2022-12-16T01:57:12.896Z,100916.56
2022-12-16T01:59:40.902Z,100911.81
2022-12-16T02:46:09.941Z,100907.72
2022-12-16T02:48:37.611Z,100891.34
2022-12-16T02:51:05.222Z,100892.97
2022-12-16T02:53:33.513Z,100893.31
2022-12-16T02:56:03.009Z,100898.56
2022-12-16T02:58:32.120Z,100895.31
2022-12-16T03:47:54.387Z,100873.69
2022-12-16T03:50:23.053Z,100880.06
2022-12-16T03:52:50.646Z,100882.50
2022-12-16T03:55:18.406Z,100876.47
2022-12-16T03:57:46.018Z,100874.50
2022-12-16T04:45:56.975Z,100911.09
2022-12-16T04:48:41.964Z,100915.06
2022-12-16T04:51:26.970Z,100915.84
2022-12-16T04:54:12.462Z,100920.63
2022-12-16T04:56:57.459Z,100922.25
2022-12-16T04:59:42.361Z,100917.03
2022-12-16T05:31:45.249Z,100940.59
2022-12-16T05:34:30.459Z,100933.41
2022-12-16T05:37:15.515Z,100933.41
2022-12-16T05:40:00.413Z,100928.63
2022-12-16T05:42:45.262Z,100927.81
2022-12-16T05:45:30.233Z,100938.97
2022-12-16T05:48:17.007Z,100941.78
2022-12-16T05:51:01.813Z,100940.59
2022-12-16T05:53:46.589Z,100950.13
2022-12-16T05:56:42.987Z,100953.72
2022-12-16T05:59:28.336Z,100956.53
2022-12-16T06:02:13.393Z,100978.03
2022-12-16T06:04:59.980Z,100964.88
2022-12-16T06:07:44.855Z,100966.88
2022-12-16T06:10:29.773Z,100980.81
2022-12-16T06:13:14.789Z,100983.25
2022-12-16T06:16:05.115Z,100993.59
2022-12-16T06:18:53.149Z,101003.13
2022-12-16T06:21:39.343Z,101003.94
2022-12-16T06:24:24.707Z,101005.09
2022-12-16T06:27:09.598Z,101009.84
2022-12-16T06:29:54.580Z,101015.44
2022-12-16T06:32:39.450Z,101015.44
2022-12-16T06:35:24.668Z,101021.00
2022-12-16T06:38:11.464Z,101016.25
2022-12-16T06:40:56.355Z,101021.00
2022-12-16T06:43:41.264Z,101025.78
2022-12-16T06:46:26.226Z,101027.41
2022-12-16T06:49:11.438Z,101034.94
2022-12-16T06:51:56.551Z,101033.78
2022-12-16T06:54:43.333Z,101044.94
2022-12-16T06:57:28.163Z,101046.56
2022-12-16T07:00:13.046Z,101044.94
2022-12-16T07:02:58.513Z,101048.91
2022-12-16T07:05:43.570Z,101052.84
2022-12-16T07:08:28.607Z,101044.47
2022-12-16T07:11:17.087Z,101052.84
2022-12-16T07:14:02.590Z,101058.41
2022-12-16T07:16:47.604Z,101064.00
2022-12-16T07:19:32.804Z,101071.19
2022-12-16T07:22:17.875Z,101076.78
2022-12-16T07:25:03.011Z,101086.78
2022-12-16T07:27:45.856Z,101093.50
2022-12-16T07:30:31.296Z,101094.31
2022-12-16T07:33:15.413Z,101099.09
2022-12-16T07:36:00.931Z,101093.72
2022-12-16T07:38:46.108Z,101117.78
2022-12-16T07:41:31.357Z,101118.59
2022-12-16T07:44:18.029Z,101138.94
2022-12-16T07:47:03.200Z,101134.19
2022-12-16T07:49:48.447Z,101132.19
2022-12-16T07:52:33.446Z,101138.13
2022-12-16T07:55:18.654Z,101138.13
2022-12-16T07:58:04.166Z,101146.50
2022-12-16T08:46:35.765Z,101178.78
2022-12-16T08:49:21.075Z,101185.19
2022-12-16T08:52:06.588Z,101182.41
2022-12-16T08:54:51.738Z,101176.81
2022-12-16T08:57:36.820Z,101182.06
2022-12-16T09:29:41.905Z,101197.31
2022-12-16T09:32:28.914Z,101205.31
2022-12-16T09:35:14.011Z,101210.91
2022-12-16T09:38:03.802Z,101217.28
2022-12-16T09:40:49.077Z,101216.13
2022-12-16T09:43:40.062Z,101216.47
2022-12-16T09:46:27.985Z,101206.94
2022-12-16T09:49:13.589Z,101206.13
2022-12-16T09:51:58.519Z,101194.97
2022-12-16T09:54:45.046Z,101207.75
2022-12-16T09:57:30.125Z,101212.53
2022-12-16T10:00:15.878Z,101208.56
2022-12-16T10:03:06.689Z,101221.41
2022-12-16T10:05:54.441Z,101213.03
2022-12-16T10:08:41.324Z,101204.66
2022-12-16T10:11:27.667Z,101201.88
2022-12-16T10:14:17.809Z,101211.88
2022-12-16T10:17:05.957Z,101209.06
2022-12-16T10:19:55.523Z,101207.91
2022-12-16T10:22:41.817Z,101208.72
2022-12-16T10:25:27.197Z,101203.16
2022-12-16T10:28:13.526Z,101207.91
2022-12-16T10:31:12.938Z,101207.91
2022-12-16T10:34:00.431Z,101206.28
2022-12-16T10:36:47.146Z,101219.06
2022-12-16T10:39:35.483Z,101224.66
2022-12-16T10:42:21.061Z,101224.66
2022-12-16T10:45:06.964Z,101224.66
2022-12-16T10:47:52.013Z,101224.66
2022-12-16T10:50:37.566Z,101223.03
2022-12-16T10:53:29.081Z,101231.84
2022-12-16T10:56:16.254Z,101229.41
2022-12-16T10:59:03.203Z,101237.44
2022-12-16T11:04:47.202Z,101230.69
2022-12-16T11:07:51.601Z,101235.09
2022-12-16T11:10:46.684Z,101233.47
2022-12-16T11:13:35.635Z,101235.09
2022-12-16T11:16:24.890Z,101229.88
2022-12-16T11:19:10.163Z,101229.53
2022-12-16T11:21:55.153Z,101235.81
2022-12-16T11:24:40.015Z,101223.50
2022-12-16T11:27:42.601Z,101220.03
2022-12-16T11:30:34.109Z,101232.00
2022-12-16T11:33:21.900Z,101223.28
2022-12-16T11:36:07.850Z,101230.50
2022-12-16T11:38:55.077Z,101234.09
2022-12-16T11:41:42.772Z,101242.16
2022-12-16T11:44:32.334Z,101252.16
2022-12-16T11:47:17.227Z,101251.34
2022-12-16T11:50:10.492Z,101246.56
2022-12-16T11:52:55.487Z,101240.19
2022-12-16T11:56:05.448Z,101248.88
2022-12-16T11:58:50.160Z,101248.88
2022-12-16T12:01:55.437Z,101250.53
2022-12-16T12:04:40.951Z,101251.34
2022-12-16T12:07:30.352Z,101250.53
2022-12-16T12:10:16.851Z,101250.53
2022-12-16T12:13:02.992Z,101260.50
2022-12-16T12:15:49.040Z,101254.94
2022-12-16T12:18:37.983Z,101251.34
2022-12-16T12:21:24.684Z,101263.31
2022-12-16T12:24:11.898Z,101259.34
2022-12-16T12:26:57.688Z,101259.69
2022-12-16T12:29:45.262Z,101271.69
2022-12-16T12:32:33.679Z,101266.41
2022-12-16T12:35:22.061Z,101272.84
2022-12-16T12:38:08.649Z,101272.84
2022-12-16T12:40:58.008Z,101278.41
2022-12-16T12:43:46.012Z,101275.63
2022-12-16T12:46:32.828Z,101268.88
2022-12-16T12:49:19.743Z,101274.78
2022-12-16T12:52:08.285Z,101280.03
2022-12-16T12:54:55.928Z,101284.81
2022-12-16T12:57:41.659Z,101278.88
2022-12-16T13:00:37.746Z,101292.84
2022-12-16T13:03:23.932Z,101296.78
2022-12-16T13:06:08.958Z,101296.78
2022-12-16T13:09:12.209Z,101292.84
2022-12-16T13:11:57.435Z,101309.56
2022-12-16T13:15:09.482Z,101306.78
2022-12-16T13:18:11.648Z,101307.13
2022-12-16T13:20:56.667Z,101310.72
2022-12-16T13:23:47.222Z,101307.13
2022-12-16T13:26:33.913Z,101319.09
2022-12-16T13:29:21.605Z,101324.69
2022-12-16T13:32:17.872Z,101322.34
2022-12-16T13:35:02.965Z,101322.34
2022-12-16T13:37:48.137Z,101316.78
2022-12-16T13:40:34.202Z,101324.69
2022-12-16T13:43:23.673Z,101330.25
2022-12-16T13:46:24.242Z,101334.22
2022-12-16T13:49:09.284Z,101337.81
2022-12-16T13:52:24.411Z,101343.03
2022-12-16T13:55:11.750Z,101340.59
2022-12-16T13:58:00.571Z,101350.59
2022-12-16T14:00:47.684Z,101361.41
2022-12-16T14:03:30.508Z,101362.56
2022-12-16T14:06:15.670Z,101373.38
2022-12-16T14:12:01.865Z,101379.78
2022-12-16T14:14:49.437Z,101379.78
2022-12-16T14:17:36.325Z,101381.44
2022-12-16T14:20:21.991Z,101384.25
2022-12-16T14:23:10.667Z,101380.59
2022-12-16T14:26:02.954Z,101392.59
2022-12-16T14:28:50.614Z,101394.25
2022-12-16T14:31:35.947Z,101395.88
2022-12-16T14:34:22.810Z,101399.00
2022-12-16T14:37:07.839Z,101397.34
2022-12-16T14:39:58.218Z,101398.19
2022-12-16T14:42:43.911Z,101398.19
2022-12-16T14:45:43.586Z,101398.19
2022-12-16T14:48:49.464Z,101408.50
2022-12-16T14:51:46.046Z,101409.19
2022-12-16T14:54:38.663Z,101410.97
2022-12-16T14:57:23.828Z,101419.00
2022-12-16T15:00:18.111Z,101416.56
2022-12-16T15:03:03.529Z,101420.97
2022-12-16T15:05:49.397Z,101429.34
2022-12-16T15:08:36.466Z,101426.56
2022-12-16T15:11:21.975Z,101426.56
2022-12-16T15:14:15.398Z,101432.13
2022-12-16T15:17:00.557Z,101434.94
2022-12-16T15:19:45.366Z,101436.56
2022-12-16T15:22:31.434Z,101434.94
2022-12-16T15:25:18.404Z,101442.13
2022-12-16T15:28:11.093Z,101435.75
2022-12-16T15:30:56.527Z,101439.34
2022-12-16T15:33:42.378Z,101440.50
2022-12-16T15:36:32.563Z,101453.31
2022-12-16T15:39:17.451Z,101450.84
2022-12-16T15:42:05.093Z,101464.47
2022-12-16T15:44:50.160Z,101469.22
2022-12-16T15:47:38.086Z,101464.47
2022-12-16T15:50:23.833Z,101470.84
2022-12-16T15:53:09.329Z,101476.44
2022-12-16T15:55:57.124Z,101485.16
2022-12-16T15:58:47.765Z,101487.94
2022-12-16T16:01:33.821Z,101490.72
2022-12-16T16:04:19.073Z,101497.94
2022-12-16T16:07:04.361Z,101497.94
2022-12-16T16:09:50.213Z,101504.34
2022-12-16T16:12:35.683Z,101501.56
2022-12-16T16:15:22.461Z,101501.91
2022-12-16T16:18:07.585Z,101505.84
2022-12-16T16:20:52.521Z,101513.06
2022-12-16T16:23:37.631Z,101507.47
2022-12-16T16:26:22.912Z,101511.09
2022-12-16T16:29:07.953Z,101527.47
2022-12-16T16:31:57.107Z,101517.47
2022-12-16T16:34:46.775Z,101521.91
2022-12-16T16:37:32.095Z,101525.84
2022-12-16T16:40:18.523Z,101525.03
2022-12-16T16:43:03.888Z,101523.88
2022-12-16T16:45:48.849Z,101529.78
2022-12-16T16:48:35.802Z,101542.59
2022-12-16T16:51:21.468Z,101534.22
2022-12-16T16:54:06.733Z,101537.34
2022-12-16T16:56:52.317Z,101537.00
2022-12-16T16:59:37.835Z,101539.81
2022-12-16T17:02:24.664Z,101544.22
2022-12-16T17:05:11.835Z,101543.06
2022-12-16T17:07:56.783Z,101533.88
2022-12-16T17:10:41.937Z,101533.06
2022-12-16T17:13:27.131Z,101538.63
2022-12-16T17:16:11.988Z,101538.63
2022-12-16T17:18:57.395Z,101544.22
2022-12-16T17:21:43.818Z,101545.38
2022-12-16T17:24:28.653Z,101549.81
2022-12-16T17:27:13.635Z,101557.34
2022-12-16T17:29:58.626Z,101553.75
2022-12-16T17:32:43.882Z,101559.31
2022-12-16T17:35:29.287Z,101559.31
2022-12-16T17:38:16.040Z,101565.72
2022-12-16T17:41:01.027Z,101560.97
2022-12-16T17:43:45.926Z,101563.75
2022-12-16T17:46:31.146Z,101565.72
2022-12-16T17:49:16.375Z,101566.53
2022-12-16T17:52:01.312Z,101565.72
2022-12-16T17:54:48.023Z,101575.72
2022-12-16T17:57:33.359Z,101574.91
2022-12-16T18:00:18.324Z,101576.06
2022-12-16T18:03:03.446Z,101584.09
2022-12-16T18:05:48.558Z,101583.28
2022-12-16T18:08:33.494Z,101588.88
2022-12-16T18:11:19.738Z,101594.44
2022-12-16T18:14:04.765Z,101601.66
2022-12-16T18:16:49.675Z,101604.44
2022-12-16T18:19:35.057Z,101608.09
2022-12-16T18:22:20.176Z,101611.19
2022-12-16T18:25:05.546Z,101598.38
2022-12-16T18:27:51.762Z,101608.41
2022-12-16T18:30:36.737Z,101610.38
2022-12-16T18:33:21.642Z,101612.81
2022-12-16T18:36:06.698Z,101613.66
2022-12-16T18:38:51.613Z,101607.25
2022-12-16T18:41:37.545Z,101614.50
2022-12-16T18:44:24.011Z,101614.50
2022-12-16T18:47:09.028Z,101621.19
2022-12-16T18:49:53.915Z,101618.41
2022-12-16T18:52:39.143Z,101616.78
2022-12-16T18:55:24.625Z,101629.56
2022-12-16T18:58:21.029Z,101624.66
2022-12-16T19:01:20.176Z,101640.72
2022-12-16T19:04:05.547Z,101632.34
2022-12-16T19:06:50.439Z,101641.56
2022-12-16T19:09:35.352Z,101636.00
2022-12-16T19:12:20.581Z,101646.31
2022-12-16T19:15:05.632Z,101646.00
2022-12-16T19:17:51.955Z,101646.31
2022-12-16T19:20:36.917Z,101652.72
2022-12-16T19:23:22.210Z,101647.97
2022-12-16T19:26:07.453Z,101654.69
2022-12-16T19:29:03.796Z,101658.31
2022-12-16T19:31:49.047Z,101663.06
2022-12-16T19:34:35.887Z,101670.28
2022-12-16T19:37:20.772Z,101675.06
2022-12-16T19:40:06.092Z,101677.84
2022-12-16T19:43:02.387Z,101680.94
2022-12-16T19:45:47.933Z,101689.84
2022-12-16T19:48:32.850Z,101681.47
2022-12-16T19:51:19.590Z,101685.38
2022-12-16T19:54:04.833Z,101689.84
2022-12-16T19:56:49.681Z,101692.63
2022-12-16T19:59:34.524Z,101697.38
2022-12-16T20:02:19.564Z,101701.00
2022-12-16T20:05:04.644Z,101699.84
2022-12-16T20:07:51.631Z,101699.84
2022-12-16T20:10:36.817Z,101710.50
2022-12-16T20:13:37.154Z,101708.84
2022-12-16T20:16:22.342Z,101708.38
2022-12-16T20:19:07.276Z,101720.00
2022-12-16T20:25:00.725Z,101730.03
2022-12-16T20:27:45.753Z,101724.44
2022-12-16T20:30:30.753Z,101736.44
2022-12-16T20:33:16.346Z,101738.38
2022-12-16T20:36:01.468Z,101733.97
2022-12-16T20:38:46.599Z,101733.97
2022-12-16T20:41:33.322Z,101739.53
2022-12-16T20:44:18.508Z,101755.13
2022-12-16T20:47:03.370Z,101751.22
2022-12-16T20:49:48.377Z,101751.53
2022-12-16T20:52:33.338Z,101752.34
2022-12-16T20:55:18.298Z,101748.44
2022-12-16T20:58:04.623Z,101756.81
2022-12-16T21:00:49.534Z,101757.09
2022-12-16T21:03:34.879Z,101756.28
2022-12-16T21:06:21.747Z,101761.88
2022-12-16T21:09:06.921Z,101773.03
2022-12-16T21:11:51.776Z,101767.44
2022-12-16T21:14:37.875Z,101770.25
2022-12-16T21:17:22.897Z,101772.22
2022-12-16T21:20:08.034Z,101784.19
2022-12-16T21:22:54.456Z,101782.56
2022-12-16T21:25:41.200Z,101786.50
2022-12-16T21:28:40.639Z,101782.56
2022-12-16T21:31:29.779Z,101793.72
2022-12-16T21:34:14.240Z,101792.09
2022-12-16T21:36:59.241Z,101791.25
2022-12-16T21:39:44.568Z,101802.44
2022-12-16T21:42:35.013Z,101802.44
2022-12-16T21:45:20.964Z,101803.25
2022-12-16T21:48:07.397Z,101813.25
2022-12-16T21:50:52.270Z,101810.47
2022-12-16T21:53:38.823Z,101815.22
2022-12-16T21:56:23.936Z,101821.63
2022-12-16T21:59:09.116Z,101814.41
2022-12-16T22:01:54.834Z,101816.38
2022-12-16T22:04:43.391Z,101822.09
2022-12-16T22:07:42.833Z,101820.97
2022-12-16T22:10:28.413Z,101813.75
2022-12-16T22:13:13.416Z,101818.50
2022-12-16T22:16:02.405Z,101816.03
2022-12-16T22:18:48.444Z,101826.06
2022-12-16T22:21:34.897Z,101830.81
2022-12-16T22:24:19.852Z,101816.03
2022-12-16T22:27:05.091Z,101820.47
2022-12-16T22:29:50.036Z,101823.25
2022-12-16T22:32:34.965Z,101827.22
2022-12-16T22:35:19.940Z,101827.22
2022-12-16T22:38:06.660Z,101832.78
2022-12-16T22:40:51.535Z,101829.50
2022-12-16T22:43:37.689Z,101832.78
2022-12-16T22:46:23.069Z,101838.38
2022-12-16T22:49:08.026Z,101847.56
2022-12-16T22:51:53.893Z,101841.63
2022-12-16T22:54:40.358Z,101846.75
2022-12-16T22:57:25.568Z,101851.16
2022-12-16T23:00:10.529Z,101855.09
2022-12-16T23:02:55.575Z,101846.75
2022-12-16T23:05:41.769Z,101853.47
2022-12-16T23:08:26.594Z,101859.06
2022-12-16T23:11:19.028Z,101859.06
2022-12-16T23:14:04.508Z,101855.44
2022-12-16T23:16:49.455Z,101852.66
2022-12-16T23:19:34.442Z,101852.66
2022-12-16T23:22:19.546Z,101855.09
2022-12-16T23:25:04.491Z,101857.91
2022-12-16T23:27:51.410Z,101856.25
2022-12-16T23:48:24.188Z,101856.59
2022-12-16T23:51:09.134Z,101866.94
2022-12-16T23:53:54.968Z,101869.72
2022-12-16T23:56:41.789Z,101866.09
2022-12-16T23:59:26.639Z,101868.06
